Pekin, North Dakota
Current Conditions -  °F | °C
As of 11:15 AM on Thursday 27 Nov 2014 (Local Time) from KDVL Reporting Station
Clear Clear  
Wind Chill: -10°   Ceiling: Unl
Heat Index:   Visibility: 10mi
Dew Point: -9°   Wind: 8mph
Humidity: 56%   Direction: 170°S
Pressure: 30.3"   Gusts: NA
Location:  47.79°N, 98.33°W
Report Text: KDVL 271715Z AUTO 17007KT 10SM CLR M16/M23 A3030 RMK AO1
Loading
Personal Weather Stations






























Interactive Weather Map New forecast layout! Learn more

10-Day Weather Forecast

Advertisements
Track Severe Weather on mobile